createdAt,value
2023-02-05T00:00:37.658Z,0.00
2023-02-05T00:01:37.656Z,0.00
2023-02-05T00:02:37.640Z,0.00
2023-02-05T00:03:37.668Z,0.00
2023-02-05T00:04:37.615Z,0.00
2023-02-05T00:05:37.614Z,0.00
2023-02-05T00:06:37.604Z,0.00
2023-02-05T00:07:37.590Z,0.00
2023-02-05T00:08:37.564Z,0.00
2023-02-05T00:09:37.559Z,0.00
2023-02-05T00:10:37.545Z,0.00
2023-02-05T00:11:37.532Z,0.00
2023-02-05T00:12:37.520Z,0.00
2023-02-05T00:13:37.512Z,0.00
2023-02-05T00:14:37.496Z,0.00
2023-02-05T00:15:37.710Z,0.00
2023-02-05T00:16:37.529Z,0.00
2023-02-05T00:17:37.468Z,0.00
2023-02-05T00:18:37.467Z,0.00
2023-02-05T00:19:37.447Z,0.00
2023-02-05T00:20:37.433Z,0.00
2023-02-05T00:21:37.419Z,0.00
2023-02-05T00:22:37.412Z,0.00
2023-02-05T00:23:37.406Z,0.00
2023-02-05T00:24:37.388Z,0.00
2023-02-05T00:25:37.398Z,0.00
2023-02-05T00:26:37.386Z,0.00
2023-02-05T00:27:37.361Z,0.00
2023-02-05T00:28:37.371Z,0.00
2023-02-05T00:29:37.336Z,0.00
2023-02-05T00:30:37.446Z,0.00
2023-02-05T00:31:37.443Z,0.00
2023-02-05T00:32:37.300Z,0.00
2023-02-05T00:33:37.289Z,0.00
2023-02-05T00:34:37.276Z,0.00
2023-02-05T00:35:37.266Z,0.00
2023-02-05T00:36:37.256Z,0.00
2023-02-05T00:37:37.253Z,0.00
2023-02-05T00:38:37.237Z,0.00
2023-02-05T00:39:37.239Z,0.00
2023-02-05T00:40:37.214Z,0.00
2023-02-05T00:41:37.233Z,0.00
2023-02-05T00:42:37.192Z,0.00
2023-02-05T00:43:37.187Z,0.00
2023-02-05T00:44:37.169Z,0.00
2023-02-05T00:45:37.160Z,0.00
2023-02-05T00:46:37.146Z,0.00
2023-02-05T00:47:37.240Z,0.00
2023-02-05T00:48:37.126Z,0.00
2023-02-05T00:49:37.118Z,0.00
2023-02-05T00:50:37.113Z,0.00
2023-02-05T00:51:37.095Z,0.00
2023-02-05T00:52:37.106Z,0.00
2023-02-05T00:53:37.078Z,0.00
2023-02-05T00:54:37.065Z,0.00
2023-02-05T00:55:37.057Z,0.00
2023-02-05T00:56:37.041Z,0.00
2023-02-05T00:57:37.029Z,0.00
2023-02-05T00:58:37.021Z,0.00
2023-02-05T00:59:37.009Z,0.00
2023-02-05T01:00:36.997Z,0.00
2023-02-05T01:01:37.032Z,0.00
2023-02-05T01:02:36.993Z,0.00
2023-02-05T01:03:36.995Z,0.00
2023-02-05T01:04:36.958Z,0.00
2023-02-05T01:05:36.946Z,0.00
2023-02-05T01:06:36.940Z,0.00
2023-02-05T01:07:36.942Z,0.00
2023-02-05T01:08:36.921Z,0.00
2023-02-05T01:09:36.910Z,0.00
2023-02-05T01:10:36.896Z,0.00
2023-02-05T01:11:36.888Z,0.00
2023-02-05T01:12:36.873Z,0.00
2023-02-05T01:13:36.862Z,0.00
2023-02-05T01:14:36.858Z,0.00
2023-02-05T01:15:37.289Z,0.00
2023-02-05T01:16:36.833Z,0.00
2023-02-05T01:17:36.817Z,0.00
2023-02-05T01:18:36.811Z,0.00
2023-02-05T01:19:36.853Z,0.00
2023-02-05T01:20:36.791Z,0.00
2023-02-05T01:21:36.777Z,0.00
2023-02-05T01:22:36.787Z,0.00
2023-02-05T01:23:36.758Z,0.00
2023-02-05T01:24:36.744Z,0.00
2023-02-05T01:25:36.749Z,0.00
2023-02-05T01:26:36.725Z,0.00
2023-02-05T01:27:36.710Z,0.00
2023-02-05T01:28:36.702Z,0.00
2023-02-05T01:29:36.693Z,0.00
2023-02-05T01:30:36.746Z,0.00
2023-02-05T01:31:36.777Z,0.00
2023-02-05T01:32:36.657Z,0.00
2023-02-05T01:33:36.652Z,0.00
2023-02-05T01:34:36.636Z,0.00
2023-02-05T01:35:36.852Z,0.00
2023-02-05T01:36:36.633Z,0.00
2023-02-05T01:37:36.611Z,0.00
2023-02-05T01:38:36.593Z,0.00
2023-02-05T01:39:36.576Z,0.00
2023-02-05T01:40:36.582Z,0.00
2023-02-05T01:41:36.556Z,0.00
2023-02-05T01:42:36.543Z,0.00
2023-02-05T01:43:36.532Z,0.00
2023-02-05T01:44:36.522Z,0.00
2023-02-05T01:45:36.639Z,0.00
2023-02-05T01:46:36.518Z,0.00
2023-02-05T01:47:36.488Z,0.00
2023-02-05T01:48:36.479Z,0.00
2023-02-05T01:49:36.467Z,0.00
2023-02-05T01:50:36.450Z,0.00
2023-02-05T01:51:36.462Z,0.00
2023-02-05T01:52:36.426Z,0.00
2023-02-05T01:53:36.490Z,0.00
2023-02-05T01:54:36.407Z,0.00
2023-02-05T01:55:36.403Z,0.00
2023-02-05T01:56:36.381Z,0.00
2023-02-05T01:57:36.368Z,0.00
2023-02-05T01:58:36.362Z,0.00
2023-02-05T01:59:36.344Z,0.00
2023-02-05T02:00:36.338Z,0.00
2023-02-05T02:01:36.351Z,0.00
2023-02-05T02:02:36.319Z,0.00
2023-02-05T02:03:36.300Z,0.00
2023-02-05T02:04:36.289Z,0.00
2023-02-05T02:05:36.462Z,0.00
2023-02-05T02:06:36.266Z,0.00
2023-02-05T02:07:36.274Z,0.00
2023-02-05T02:08:36.241Z,0.00
2023-02-05T02:09:36.229Z,0.00
2023-02-05T02:10:36.221Z,0.00
2023-02-05T02:11:36.209Z,0.00
2023-02-05T02:12:36.198Z,0.00
2023-02-05T02:13:36.192Z,0.00
2023-02-05T02:14:36.177Z,0.00
2023-02-05T02:15:36.447Z,0.00
2023-02-05T02:16:36.161Z,0.00
2023-02-05T02:17:36.144Z,0.00
2023-02-05T02:18:36.132Z,0.00
2023-02-05T02:19:36.122Z,0.00
2023-02-05T02:20:36.111Z,0.00
2023-02-05T02:21:36.103Z,0.00
2023-02-05T02:22:36.089Z,0.00
2023-02-05T02:23:36.102Z,0.00
2023-02-05T02:24:36.076Z,0.00
2023-02-05T02:25:36.353Z,0.00
2023-02-05T02:26:36.046Z,0.00
2023-02-05T02:27:36.037Z,0.00
2023-02-05T02:28:36.026Z,0.00
2023-02-05T02:29:36.013Z,0.00
2023-02-05T02:30:36.066Z,0.00
2023-02-05T02:31:36.048Z,0.00
2023-02-05T02:32:35.982Z,0.00
2023-02-05T02:33:35.973Z,0.00
2023-02-05T02:34:35.970Z,0.00
2023-02-05T02:35:36.236Z,0.00
2023-02-05T02:36:35.949Z,0.00
2023-02-05T02:37:35.939Z,0.00
2023-02-05T02:38:35.916Z,0.00
2023-02-05T02:39:35.933Z,0.00
2023-02-05T02:40:35.894Z,0.00
2023-02-05T02:41:35.886Z,0.00
2023-02-05T02:42:35.873Z,0.00
2023-02-05T02:43:35.856Z,0.00
2023-02-05T02:44:35.846Z,0.00
2023-02-05T02:45:35.987Z,0.00
2023-02-05T02:46:35.857Z,0.00
2023-02-05T02:47:35.820Z,0.00
2023-02-05T02:48:35.823Z,0.00
2023-02-05T02:49:35.797Z,0.00
2023-02-05T02:50:35.784Z,0.00
2023-02-05T02:51:35.800Z,0.00
2023-02-05T02:52:35.764Z,0.00
2023-02-05T02:53:35.765Z,0.00
2023-02-05T02:54:35.746Z,0.00
2023-02-05T02:55:36.124Z,0.00
2023-02-05T02:56:35.722Z,0.00
2023-02-05T02:57:35.705Z,0.00
2023-02-05T02:58:35.700Z,0.00
2023-02-05T02:59:35.688Z,0.00
2023-02-05T03:00:35.765Z,0.00
2023-02-05T03:01:35.669Z,0.00
2023-02-05T03:02:35.656Z,0.00
2023-02-05T03:03:35.667Z,0.00
2023-02-05T03:04:35.634Z,0.00
2023-02-05T03:05:35.992Z,0.00
2023-02-05T03:06:35.609Z,0.00
2023-02-05T03:07:35.608Z,0.00
2023-02-05T03:08:35.590Z,0.00
2023-02-05T03:09:35.577Z,0.00
2023-02-05T03:10:35.565Z,0.00
2023-02-05T03:11:35.593Z,0.00
2023-02-05T03:12:35.550Z,0.00
2023-02-05T03:13:35.532Z,0.00
2023-02-05T03:14:35.523Z,0.00
2023-02-05T03:15:35.899Z,0.00
2023-02-05T03:16:35.554Z,0.00
2023-02-05T03:17:35.491Z,0.00
2023-02-05T03:18:35.480Z,0.00
2023-02-05T03:19:35.481Z,0.00
2023-02-05T03:20:35.456Z,0.00
2023-02-05T03:21:35.447Z,0.00
2023-02-05T03:22:35.433Z,0.00
2023-02-05T03:23:35.421Z,0.00
2023-02-05T03:24:35.413Z,0.00
2023-02-05T03:25:35.656Z,0.00
2023-02-05T03:26:35.401Z,0.00
2023-02-05T03:27:35.397Z,0.00
2023-02-05T03:28:35.369Z,0.00
2023-02-05T03:29:35.354Z,0.00
2023-02-05T03:30:35.384Z,0.00
2023-02-05T03:31:35.350Z,0.00
2023-02-05T03:32:35.331Z,0.00
2023-02-05T03:33:35.314Z,0.00
2023-02-05T03:34:35.301Z,0.00
2023-02-05T03:35:35.670Z,0.00
2023-02-05T03:36:35.289Z,0.00
2023-02-05T03:37:35.266Z,0.00
2023-02-05T03:38:35.261Z,0.00
2023-02-05T03:39:35.249Z,0.00
2023-02-05T03:40:35.238Z,0.00
2023-02-05T03:41:35.222Z,0.00
2023-02-05T03:42:35.271Z,0.00
2023-02-05T03:43:35.233Z,0.00
2023-02-05T03:44:35.206Z,0.00
2023-02-05T03:45:35.592Z,0.00
2023-02-05T03:46:35.170Z,0.00
2023-02-05T03:47:35.155Z,0.00
2023-02-05T03:48:35.146Z,0.00
2023-02-05T03:49:35.141Z,0.00
2023-02-05T03:50:35.157Z,0.00
2023-02-05T03:51:35.112Z,0.00
2023-02-05T03:52:35.107Z,0.00
2023-02-05T03:53:35.087Z,0.00
2023-02-05T03:54:35.080Z,0.00
2023-02-05T03:55:35.392Z,0.00
2023-02-05T03:56:35.056Z,0.00
2023-02-05T03:57:35.042Z,0.00
2023-02-05T03:58:35.032Z,0.00
2023-02-05T03:59:35.051Z,0.00
2023-02-05T04:00:35.009Z,0.00
2023-02-05T04:01:34.997Z,0.00
2023-02-05T04:02:35.069Z,0.00
2023-02-05T04:03:34.972Z,0.00
2023-02-05T04:04:34.962Z,0.00
2023-02-05T04:05:35.297Z,0.00
2023-02-05T04:06:34.942Z,0.00
2023-02-05T04:07:34.930Z,0.00
2023-02-05T04:08:34.918Z,0.00
2023-02-05T04:09:34.905Z,0.00
2023-02-05T04:10:34.897Z,0.00
2023-02-05T04:11:34.887Z,0.00
2023-02-05T04:12:34.876Z,0.00
2023-02-05T04:13:34.868Z,0.00
2023-02-05T04:14:34.863Z,0.00
2023-02-05T04:15:35.297Z,0.00
2023-02-05T04:16:34.892Z,0.00
2023-02-05T04:17:34.824Z,0.00
2023-02-05T04:18:34.803Z,0.00
2023-02-05T04:19:34.800Z,0.00
2023-02-05T04:20:34.800Z,0.00
2023-02-05T04:21:34.772Z,0.00
2023-02-05T04:22:34.762Z,0.00
2023-02-05T04:23:34.749Z,0.00
2023-02-05T04:24:34.740Z,0.00
2023-02-05T04:25:35.131Z,0.00
2023-02-05T04:26:34.728Z,0.00
2023-02-05T04:27:34.712Z,0.00
2023-02-05T04:28:34.723Z,0.00
2023-02-05T04:29:34.759Z,0.00
2023-02-05T04:30:34.835Z,0.00
2023-02-05T04:31:34.862Z,0.00
2023-02-05T04:32:34.765Z,0.00
2023-02-05T04:33:34.821Z,0.00
2023-02-05T04:34:34.754Z,0.00
2023-02-05T04:35:34.967Z,0.00
2023-02-05T04:36:34.614Z,0.00
2023-02-05T04:37:34.598Z,0.00
2023-02-05T04:38:34.589Z,0.00
2023-02-05T04:39:34.581Z,0.00
2023-02-05T04:40:34.568Z,0.00
2023-02-05T04:41:34.570Z,0.00
2023-02-05T04:42:34.548Z,0.00
2023-02-05T04:43:34.534Z,0.00
2023-02-05T04:44:34.525Z,0.00
2023-02-05T04:45:34.808Z,0.00
2023-02-05T04:46:34.502Z,0.00
2023-02-05T04:47:34.514Z,0.00
2023-02-05T04:48:34.482Z,0.00
2023-02-05T04:49:34.466Z,0.00
2023-02-05T04:50:34.456Z,0.00
2023-02-05T04:51:34.444Z,0.00
2023-02-05T04:52:34.446Z,0.00
2023-02-05T04:53:34.422Z,0.00
2023-02-05T04:54:34.412Z,0.00
2023-02-05T04:55:34.739Z,0.00
2023-02-05T04:56:34.390Z,0.00
2023-02-05T04:57:34.387Z,0.00
2023-02-05T04:58:34.370Z,0.00
2023-02-05T04:59:34.356Z,0.00
2023-02-05T05:00:34.344Z,0.00
2023-02-05T05:01:34.377Z,0.00
2023-02-05T05:02:34.367Z,0.00
2023-02-05T05:03:34.338Z,0.00
2023-02-05T05:04:34.301Z,0.00
2023-02-05T05:05:34.650Z,0.00
2023-02-05T05:06:34.283Z,0.00
2023-02-05T05:07:34.279Z,0.00
2023-02-05T05:08:34.260Z,0.00
2023-02-05T05:09:34.243Z,0.00
2023-02-05T05:10:34.239Z,0.00
2023-02-05T05:11:34.229Z,0.00
2023-02-05T05:12:34.213Z,0.00
2023-02-05T05:13:34.205Z,0.00
2023-02-05T05:14:34.193Z,0.00
2023-02-05T05:15:34.566Z,0.00
2023-02-05T05:16:34.168Z,0.00
2023-02-05T05:17:34.154Z,0.00
2023-02-05T05:18:34.149Z,0.00
2023-02-05T05:19:34.203Z,0.00
2023-02-05T05:20:34.123Z,0.00
2023-02-05T05:21:34.116Z,0.00
2023-02-05T05:22:34.108Z,0.00
2023-02-05T05:23:34.086Z,0.00
2023-02-05T05:24:34.086Z,0.00
2023-02-05T05:25:34.354Z,0.00
2023-02-05T05:26:34.077Z,0.00
2023-02-05T05:27:34.139Z,0.00
2023-02-05T05:28:34.035Z,0.00
2023-02-05T05:29:34.029Z,0.00
2023-02-05T05:30:34.015Z,0.00
2023-02-05T05:31:33.999Z,0.00
2023-02-05T05:32:33.988Z,0.00
2023-02-05T05:33:33.978Z,0.00
2023-02-05T05:34:33.964Z,0.00
2023-02-05T05:35:34.323Z,0.00
2023-02-05T05:36:33.957Z,0.00
2023-02-05T05:37:33.932Z,0.00
2023-02-05T05:38:33.922Z,0.00
2023-02-05T05:39:33.910Z,0.00
2023-02-05T05:40:33.900Z,0.00
2023-02-05T05:41:33.887Z,0.00
2023-02-05T05:42:33.880Z,0.00
2023-02-05T05:43:33.865Z,0.00
2023-02-05T05:44:33.851Z,0.00
2023-02-05T05:45:34.204Z,0.00
2023-02-05T05:46:33.836Z,0.00
2023-02-05T05:47:33.819Z,0.00
2023-02-05T05:48:33.808Z,0.00
2023-02-05T05:49:33.801Z,0.00
2023-02-05T05:50:33.785Z,0.00
2023-02-05T05:51:33.802Z,0.00
2023-02-05T05:52:33.773Z,0.00
2023-02-05T05:53:33.755Z,0.00
2023-02-05T05:54:33.750Z,0.00
2023-02-05T05:55:34.070Z,0.00
2023-02-05T05:56:33.722Z,0.00
2023-02-05T05:57:33.707Z,0.00
2023-02-05T05:58:33.696Z,0.00
2023-02-05T05:59:33.687Z,0.00
2023-02-05T06:00:33.675Z,0.00
2023-02-05T06:01:33.666Z,0.00
2023-02-05T06:02:33.659Z,0.00
2023-02-05T06:03:33.638Z,0.00
2023-02-05T06:04:33.733Z,0.00
2023-02-05T06:05:33.912Z,0.00
2023-02-05T06:06:33.602Z,0.00
2023-02-05T06:07:33.619Z,0.00
2023-02-05T06:08:33.588Z,0.00
2023-02-05T06:09:33.569Z,0.00
2023-02-05T06:10:33.557Z,0.00
2023-02-05T06:11:33.547Z,0.00
2023-02-05T06:12:33.535Z,0.00
2023-02-05T06:13:33.524Z,0.00
2023-02-05T06:14:33.514Z,0.00
2023-02-05T06:15:34.034Z,0.00
2023-02-05T06:16:33.488Z,0.00
2023-02-05T06:17:33.483Z,0.00
2023-02-05T06:18:33.468Z,0.00
2023-02-05T06:19:33.455Z,0.00
2023-02-05T06:20:33.443Z,0.00
2023-02-05T06:21:33.440Z,0.00
2023-02-05T06:22:33.421Z,0.00
2023-02-05T06:23:33.453Z,0.00
2023-02-05T06:24:33.399Z,0.00
2023-02-05T06:25:33.732Z,0.00
2023-02-05T06:26:33.374Z,0.00
2023-02-05T06:27:33.370Z,0.00
2023-02-05T06:28:33.357Z,0.00
2023-02-05T06:29:33.346Z,0.00
2023-02-05T06:30:33.340Z,0.00
2023-02-05T06:31:33.466Z,0.00
2023-02-05T06:32:33.312Z,0.00
2023-02-05T06:33:33.304Z,4.00
2023-02-05T06:34:33.299Z,4.00
2023-02-05T06:35:33.725Z,4.00
2023-02-05T06:36:33.266Z,0.00
2023-02-05T06:37:46.578Z,4.00
2023-02-05T06:38:34.278Z,4.00
2023-02-05T06:39:33.257Z,4.00
2023-02-05T06:40:33.231Z,8.00
2023-02-05T06:41:33.222Z,8.00
2023-02-05T06:42:33.200Z,8.00
2023-02-05T06:43:33.191Z,8.00
2023-02-05T06:44:33.177Z,12.00
2023-02-05T06:45:33.543Z,16.00
2023-02-05T06:46:33.204Z,16.00
2023-02-05T06:47:33.147Z,20.00
2023-02-05T06:48:33.135Z,24.00
2023-02-05T06:49:33.123Z,24.00
2023-02-05T06:50:33.111Z,24.00
2023-02-05T06:51:33.102Z,28.00
2023-02-05T06:52:33.090Z,32.00
2023-02-05T06:53:33.105Z,32.00
2023-02-05T06:54:33.075Z,40.00
2023-02-05T06:55:33.482Z,40.00
2023-02-05T06:56:33.074Z,40.00
2023-02-05T06:57:33.035Z,44.00
2023-02-05T06:58:33.032Z,48.00
2023-02-05T06:59:33.013Z,48.00
2023-02-05T07:00:33.082Z,56.00
2023-02-05T07:01:33.034Z,64.00
2023-02-05T07:02:33.087Z,72.00
2023-02-05T07:03:33.001Z,84.00
2023-02-05T07:04:32.959Z,100.00
2023-02-05T07:05:33.422Z,112.00
2023-02-05T07:06:32.938Z,128.00
2023-02-05T07:07:32.928Z,140.00
2023-02-05T07:08:32.926Z,152.00
2023-02-05T07:09:32.910Z,164.00
2023-02-05T07:10:32.892Z,176.00
2023-02-05T07:11:32.919Z,188.00
2023-02-05T07:12:32.877Z,200.00
2023-02-05T07:13:32.863Z,208.00
2023-02-05T07:14:32.852Z,224.00
2023-02-05T07:15:33.286Z,244.00
2023-02-05T07:16:32.828Z,260.00
2023-02-05T07:17:32.820Z,280.00
2023-02-05T07:18:32.809Z,304.00
2023-02-05T07:19:32.796Z,320.00
2023-02-05T07:20:32.785Z,340.00
2023-02-05T07:21:32.782Z,356.00
2023-02-05T07:22:32.763Z,376.00
2023-02-05T07:23:32.751Z,396.00
2023-02-05T07:24:32.739Z,404.00
2023-02-05T07:25:33.184Z,408.00
2023-02-05T07:26:32.717Z,412.00
2023-02-05T07:27:32.733Z,416.00
2023-02-05T07:28:32.694Z,436.00
2023-02-05T07:29:32.686Z,456.00
2023-02-05T07:30:32.674Z,472.00
2023-02-05T07:31:32.728Z,484.00
2023-02-05T07:32:32.649Z,504.00
2023-02-05T07:33:32.641Z,536.00
2023-02-05T07:34:32.632Z,568.00
2023-02-05T07:35:32.922Z,584.00
2023-02-05T07:36:32.605Z,576.00
2023-02-05T07:37:32.595Z,564.00
2023-02-05T07:38:32.593Z,560.00
2023-02-05T07:39:32.582Z,552.00
2023-02-05T07:40:32.558Z,564.00
2023-02-05T07:41:32.547Z,584.00
2023-02-05T07:42:32.532Z,612.00
2023-02-05T07:43:32.591Z,636.00
2023-02-05T07:44:32.510Z,660.00
2023-02-05T07:45:32.779Z,696.00
2023-02-05T07:46:32.612Z,744.00
2023-02-05T07:47:32.475Z,792.00
2023-02-05T07:48:32.465Z,828.00
2023-02-05T07:49:32.456Z,860.00
2023-02-05T07:50:32.451Z,892.00
2023-02-05T07:51:32.431Z,924.00
2023-02-05T07:52:32.419Z,940.00
2023-02-05T07:53:32.419Z,968.00
2023-02-05T07:54:32.396Z,996.00
2023-02-05T07:55:32.709Z,1024.00
2023-02-05T07:56:32.373Z,1060.00
2023-02-05T07:57:32.383Z,1092.00
2023-02-05T07:58:32.363Z,1124.00
2023-02-05T07:59:32.365Z,1172.00
2023-02-05T08:00:32.326Z,1220.00
2023-02-05T08:01:32.319Z,1244.00
2023-02-05T08:02:32.305Z,1256.00
2023-02-05T08:03:32.301Z,1300.00
2023-02-05T08:04:32.299Z,1328.00
2023-02-05T08:05:32.583Z,1344.00
2023-02-05T08:06:32.258Z,1384.00
2023-02-05T08:07:32.251Z,1448.00
2023-02-05T08:08:32.237Z,1504.00
2023-02-05T08:09:32.227Z,1540.00
2023-02-05T08:10:32.216Z,1536.00
2023-02-05T08:11:32.716Z,1572.00
2023-02-05T08:12:32.194Z,1584.00
2023-02-05T08:13:32.184Z,1560.00
2023-02-05T08:14:32.170Z,1504.00
2023-02-05T08:15:32.476Z,1508.00
2023-02-05T08:16:32.179Z,1568.00
2023-02-05T08:17:32.146Z,1660.00
2023-02-05T08:18:32.149Z,1748.00
2023-02-05T08:19:32.130Z,1804.00
2023-02-05T08:20:32.103Z,1860.00
2023-02-05T08:21:32.096Z,1932.00
2023-02-05T08:22:32.084Z,2000.00
2023-02-05T08:23:32.083Z,2064.00
2023-02-05T08:24:32.058Z,2136.00
2023-02-05T08:25:32.504Z,2232.00
2023-02-05T08:26:32.041Z,2352.00
2023-02-05T08:27:32.029Z,2528.00
2023-02-05T08:28:32.022Z,2724.00
2023-02-05T08:29:32.010Z,2948.00
2023-02-05T08:30:32.045Z,3204.00
2023-02-05T08:31:32.030Z,3376.00
2023-02-05T08:32:31.975Z,3452.00
2023-02-05T08:33:31.964Z,3488.00
2023-02-05T08:34:31.963Z,3496.00
2023-02-05T08:35:32.035Z,3480.00
2023-02-05T08:36:31.935Z,3476.00
2023-02-05T08:37:31.918Z,3536.00
2023-02-05T08:38:31.911Z,3652.00
2023-02-05T08:39:31.901Z,3792.00
2023-02-05T08:40:31.885Z,3888.00
2023-02-05T08:41:31.885Z,3936.00
2023-02-05T08:42:31.863Z,3964.00
2023-02-05T08:43:31.855Z,3836.00
2023-02-05T08:44:31.842Z,3716.00
2023-02-05T08:45:31.949Z,3652.00
2023-02-05T08:46:47.592Z,3668.00
2023-02-05T08:47:32.865Z,3728.00
2023-02-05T08:48:31.798Z,3856.00
2023-02-05T08:49:31.788Z,4024.00
2023-02-05T08:50:31.775Z,4116.00
2023-02-05T08:51:31.770Z,4168.00
2023-02-05T08:52:31.755Z,4300.00
2023-02-05T08:53:31.753Z,4512.00
2023-02-05T08:54:31.733Z,4728.00
2023-02-05T08:55:31.981Z,4912.00
2023-02-05T08:56:31.735Z,5016.00
2023-02-05T08:57:31.702Z,5088.00
2023-02-05T08:58:31.689Z,5216.00
2023-02-05T08:59:31.680Z,5248.00
2023-02-05T09:00:31.665Z,5108.00
2023-02-05T09:01:31.750Z,4892.00
2023-02-05T09:02:32.296Z,4728.00
2023-02-05T09:03:31.661Z,4684.00
2023-02-05T09:04:31.663Z,4680.00
2023-02-05T09:05:31.798Z,4664.00
2023-02-05T09:06:31.608Z,4756.00
2023-02-05T09:07:31.588Z,4912.00
2023-02-05T09:08:31.572Z,5160.00
2023-02-05T09:09:31.571Z,5360.00
2023-02-05T09:10:31.557Z,5544.00
2023-02-05T09:11:31.541Z,5720.00
2023-02-05T09:12:31.537Z,5872.00
2023-02-05T09:13:31.523Z,5976.00
2023-02-05T09:14:31.508Z,6068.00
2023-02-05T09:15:31.535Z,6172.00
2023-02-05T09:16:31.506Z,6352.00
2023-02-05T09:17:31.475Z,6408.00
2023-02-05T09:18:31.462Z,6332.00
2023-02-05T09:19:31.490Z,6220.00
2023-02-05T09:20:31.464Z,6112.00
2023-02-05T09:21:31.432Z,6048.00
2023-02-05T09:22:31.421Z,6124.00
2023-02-05T09:23:31.412Z,6324.00
2023-02-05T09:24:31.403Z,6568.00
2023-02-05T09:25:31.396Z,6812.00
2023-02-05T09:26:31.379Z,6756.00
2023-02-05T09:27:31.481Z,6188.00
2023-02-05T09:28:31.349Z,5964.00
2023-02-05T09:29:31.345Z,6136.00
2023-02-05T09:30:31.334Z,6092.00
2023-02-05T09:31:31.478Z,5876.00
2023-02-05T09:32:31.307Z,6212.00
2023-02-05T09:33:31.315Z,6748.00
2023-02-05T09:34:31.284Z,6900.00
2023-02-05T09:35:31.301Z,6760.00
2023-02-05T09:36:31.258Z,6332.00
2023-02-05T09:37:31.259Z,6076.00
2023-02-05T09:38:31.238Z,6148.00
2023-02-05T09:40:17.324Z,6332.00
2023-02-05T09:40:32.239Z,6316.00
2023-02-05T09:41:31.205Z,6080.00
2023-02-05T09:42:31.218Z,5836.00
2023-02-05T09:43:31.181Z,5528.00
2023-02-05T09:44:31.182Z,5044.00
2023-02-05T09:45:31.156Z,4784.00
2023-02-05T09:46:31.148Z,4512.00
2023-02-05T09:47:31.133Z,4468.00
2023-02-05T09:48:31.123Z,5040.00
2023-02-05T09:49:31.110Z,6004.00
2023-02-05T09:50:31.098Z,6508.00
2023-02-05T09:51:31.110Z,6264.00
2023-02-05T09:52:31.076Z,6248.00
2023-02-05T09:53:31.066Z,6832.00
2023-02-05T09:54:31.058Z,6696.00
2023-02-05T09:55:31.041Z,6904.00
2023-02-05T09:56:31.026Z,7024.00
2023-02-05T09:57:31.030Z,7656.00
2023-02-05T09:58:31.039Z,8524.00
2023-02-05T09:59:30.991Z,8168.00
2023-02-05T10:00:30.978Z,7740.00
2023-02-05T10:01:31.004Z,8312.00
2023-02-05T10:02:30.958Z,8680.00
2023-02-05T10:03:30.949Z,8244.00
2023-02-05T10:04:31.003Z,7744.00
2023-02-05T10:05:30.940Z,7712.00
2023-02-05T10:06:30.912Z,7940.00
2023-02-05T10:07:30.926Z,8128.00
2023-02-05T10:08:30.900Z,8120.00
2023-02-05T10:09:30.881Z,7816.00
2023-02-05T10:10:30.870Z,7868.00
2023-02-05T10:11:30.853Z,7728.00
2023-02-05T10:12:30.843Z,7324.00
2023-02-05T10:13:30.830Z,6900.00
2023-02-05T10:14:30.822Z,6956.00
2023-02-05T10:15:30.846Z,7092.00
2023-02-05T10:16:30.802Z,7072.00
2023-02-05T10:17:30.788Z,7348.00
2023-02-05T10:18:30.780Z,7980.00
2023-02-05T10:19:30.766Z,8296.00
2023-02-05T10:20:30.759Z,8348.00
2023-02-05T10:21:30.741Z,8572.00
2023-02-05T10:22:30.738Z,8692.00
2023-02-05T10:23:30.754Z,8732.00
2023-02-05T10:24:30.713Z,8856.00
2023-02-05T10:25:30.696Z,9168.00
2023-02-05T10:26:30.690Z,8628.00
2023-02-05T10:27:30.676Z,8400.00
2023-02-05T10:28:30.668Z,8504.00
2023-02-05T10:29:30.673Z,8940.00
2023-02-05T10:30:30.745Z,9560.00
2023-02-05T10:31:30.713Z,9852.00
2023-02-05T10:32:30.625Z,9680.00
2023-02-05T10:33:30.614Z,9764.00
2023-02-05T10:34:30.602Z,10272.00
2023-02-05T10:35:30.600Z,10608.00
2023-02-05T10:36:30.609Z,9708.00
2023-02-05T10:37:30.570Z,8544.00
2023-02-05T10:38:30.560Z,7592.00
2023-02-05T10:39:30.634Z,7028.00
2023-02-05T10:40:30.543Z,6844.00
2023-02-05T10:41:30.535Z,6792.00
2023-02-05T10:42:30.512Z,6552.00
2023-02-05T10:43:30.505Z,6276.00
2023-02-05T10:44:30.494Z,6232.00
2023-02-05T10:45:30.478Z,6296.00
2023-02-05T10:46:30.545Z,6316.00
2023-02-05T10:47:30.459Z,6148.00
2023-02-05T10:48:30.446Z,6240.00
2023-02-05T10:49:30.433Z,6272.00
2023-02-05T10:50:30.423Z,5968.00
2023-02-05T10:51:30.422Z,5196.00
2023-02-05T10:52:30.404Z,4184.00
2023-02-05T10:53:30.390Z,3892.00
2023-02-05T10:54:30.378Z,4520.00
2023-02-05T10:55:30.400Z,4976.00
2023-02-05T10:56:30.356Z,5328.00
2023-02-05T10:57:30.350Z,5344.00
2023-02-05T10:58:30.340Z,5380.00
2023-02-05T10:59:30.329Z,5352.00
2023-02-05T11:00:30.354Z,5124.00
2023-02-05T11:01:30.326Z,5272.00
2023-02-05T11:02:30.326Z,5148.00
2023-02-05T11:03:30.278Z,5208.00
2023-02-05T11:04:30.294Z,5236.00
2023-02-05T11:05:30.265Z,5736.00
2023-02-05T11:06:30.248Z,6572.00
2023-02-05T11:07:30.246Z,6900.00
2023-02-05T11:08:30.227Z,6616.00
2023-02-05T11:09:30.213Z,6504.00
2023-02-05T11:10:30.208Z,6000.00
2023-02-05T11:11:30.219Z,5532.00
2023-02-05T11:12:30.195Z,5076.00
2023-02-05T11:13:30.198Z,4444.00
2023-02-05T11:14:30.156Z,4096.00
2023-02-05T11:15:30.154Z,4800.00
2023-02-05T11:16:30.132Z,5412.00
2023-02-05T11:17:30.129Z,5452.00
2023-02-05T11:18:30.116Z,5244.00
2023-02-05T11:19:30.098Z,5092.00
2023-02-05T11:20:30.106Z,5224.00
2023-02-05T11:21:30.077Z,5484.00
2023-02-05T11:22:30.073Z,5816.00
2023-02-05T11:23:30.057Z,5904.00
2023-02-05T11:24:30.046Z,5948.00
2023-02-05T11:25:31.428Z,5488.00
2023-02-05T11:26:30.020Z,5712.00
2023-02-05T11:27:30.039Z,5808.00
2023-02-05T11:28:30.014Z,5844.00
2023-02-05T11:29:29.986Z,5820.00
2023-02-05T11:30:50.014Z,5536.00
2023-02-05T11:31:31.032Z,5412.00
2023-02-05T11:32:29.960Z,5204.00
2023-02-05T11:33:29.945Z,5132.00
2023-02-05T11:34:29.933Z,5416.00
2023-02-05T11:35:29.922Z,6020.00
2023-02-05T11:36:29.912Z,6364.00
2023-02-05T11:37:30.308Z,6576.00
2023-02-05T11:38:30.100Z,6880.00
2023-02-05T11:39:30.262Z,7108.00
2023-02-05T11:40:30.269Z,7168.00
2023-02-05T11:41:30.033Z,7224.00
2023-02-05T11:42:29.990Z,7240.00
2023-02-05T11:43:30.046Z,7512.00
2023-02-05T11:44:30.583Z,7960.00
2023-02-05T11:45:29.929Z,8476.00
2023-02-05T11:46:30.009Z,8408.00
2023-02-05T11:47:29.921Z,8140.00
2023-02-05T11:48:29.830Z,7768.00
2023-02-05T11:49:29.832Z,7344.00
2023-02-05T11:50:29.799Z,6904.00
2023-02-05T11:51:29.792Z,6540.00
2023-02-05T11:52:29.986Z,6212.00
2023-02-05T11:53:29.887Z,5876.00
2023-02-05T11:54:29.801Z,5672.00
2023-02-05T11:55:29.846Z,5808.00
2023-02-05T11:56:29.772Z,4988.00
2023-02-05T11:57:29.744Z,4688.00
2023-02-05T11:59:04.282Z,3920.00
2023-02-05T12:00:04.069Z,3336.00
2023-02-05T12:01:04.117Z,3700.00
2023-02-05T12:02:04.094Z,5356.00
2023-02-05T12:03:04.094Z,5740.00
2023-02-05T12:04:04.017Z,4876.00
2023-02-05T12:05:03.958Z,4816.00
2023-02-05T12:06:04.167Z,4756.00
2023-02-05T12:07:03.967Z,4572.00
2023-02-05T12:08:31.506Z,4520.00
2023-02-05T12:09:31.421Z,4600.00
2023-02-05T12:10:31.460Z,4556.00
2023-02-05T12:11:31.481Z,4200.00
2023-02-05T12:12:31.424Z,4724.00
2023-02-05T12:13:31.545Z,5196.00
2023-02-05T12:14:31.482Z,5308.00
2023-02-05T12:15:31.363Z,5592.00
2023-02-05T12:16:31.362Z,5628.00
2023-02-05T12:17:31.336Z,6036.00
2023-02-05T12:18:31.383Z,6144.00
2023-02-05T12:19:31.333Z,5328.00
2023-02-05T12:20:31.382Z,5452.00
2023-02-05T12:21:31.722Z,6336.00
2023-02-05T12:22:31.412Z,6192.00
2023-02-05T12:23:31.308Z,5848.00
2023-02-05T12:24:31.264Z,5796.00
2023-02-05T12:25:31.463Z,5920.00
2023-02-05T12:26:31.401Z,6336.00
2023-02-05T12:27:31.250Z,6736.00
2023-02-05T12:28:31.294Z,6360.00
2023-02-05T12:29:31.183Z,5848.00
2023-02-05T12:30:31.550Z,6332.00
2023-02-05T12:31:31.354Z,6316.00
2023-02-05T12:32:31.144Z,7184.00
2023-02-05T12:33:31.158Z,7824.00
2023-02-05T12:34:31.221Z,7732.00
2023-02-05T12:35:31.132Z,7456.00
2023-02-05T12:36:31.201Z,6968.00
2023-02-05T12:37:31.297Z,7180.00
2023-02-05T12:38:32.690Z,7156.00
2023-02-05T12:39:31.023Z,6532.00
2023-02-05T12:40:31.011Z,6576.00
2023-02-05T12:41:30.999Z,6284.00
2023-02-05T12:42:30.983Z,6272.00
2023-02-05T12:43:30.972Z,5788.00
2023-02-05T12:44:32.235Z,5532.00
2023-02-05T12:45:31.024Z,5396.00
2023-02-05T12:46:31.024Z,5288.00